Latest Weather Observations for Melbourne Airport

IDV60901

Issued at 10:41 am EST Friday 14 May 2021 (issued every 10 minutes, with the page automatically refreshed every 10 minutes)

About weather observations | Map of Melbourne area stations | Latest observations for Melbourne area | Other Formats
Station Details ID: 086282 Name: MELBOURNE AIRPORT Lat: -37.67 Lon: 144.83 Height: 113.4 m
Data from the previous 72 hours. | See also: Recent months at Melbourne Airport
Date/Time
EST
Temp
°C
App
Temp
°C
Dew
Point
°C
Rel
Hum
%
Delta-T
°C
Wind Press
QNH
hPa
Press
MSL
hPa
Rain since
9am
mm
Dir  Spd
km/h
Gust
km/h
Spd
kts
Gust
kts
14/10:30am 12.6 7.1 5.8 63 3.2 W 24 35 13 19 1015.4 1015.4 0.0
14/10:00am 12.3 6.4 5.7 64 3.1 W 26 33 14 18 1015.2 1015.2 0.0
14/09:30am 11.5 5.3 6.2 70 2.5 W 28 35 15 19 1015.1 1015.1 0.0
14/09:00am 10.7 5.2 5.7 71 2.3 W 24 32 13 17 1014.8 1014.8 1.8
14/08:30am 10.1 5.9 5.8 74 2.0 WNW 17 28 9 15 1014.5 1014.5 1.8
14/08:00am 9.3 6.1 5.3 76 1.8 NW 11 17 6 9 1014.3 1014.3 1.8
14/07:30am 8.8 5.6 5.3 79 1.6 NW 11 17 6 9 1013.8 1013.8 1.8
14/07:00am 7.9 3.6 5.2 83 1.2 WNW 17 26 9 14 1013.4 1013.4 1.8
14/06:30am 8.8 4.0 5.7 81 1.4 WNW 20 30 11 16 1013.2 1013.2 1.8
14/06:00am 9.4 5.2 5.7 78 1.7 WNW 17 22 9 12 1013.0 1013.0 1.8
14/05:30am 8.7 3.5 5.6 81 1.4 WNW 22 28 12 15 1012.8 1012.8 1.8
14/05:00am 9.2 4.1 5.9 80 1.5 WNW 22 30 12 16 1012.6 1012.6 1.8
14/04:30am 9.4 3.1 5.9 79 1.6 WNW 28 33 15 18 1012.4 1012.4 1.8
14/04:00am 9.1 4.3 5.4 77 1.7 WNW 20 30 11 16 1012.4 1012.4 1.8
14/03:30am 7.4 3.3 4.2 80 1.4 N 15 19 8 10 1012.4 1012.4 1.8
14/03:00am 7.1 2.2 3.9 80 1.4 N 19 20 10 11 1012.4 1012.4 1.8
14/02:30am 6.0 1.0 3.4 83 1.1 N 19 20 10 11 1012.8 1012.8 1.8
14/02:00am 6.3 1.6 3.2 80 1.3 N 17 20 9 11 1013.1 1013.1 1.8
14/01:30am 7.6 2.9 3.4 75 1.8 NNW 17 20 9 11 1013.1 1013.1 1.8
14/01:00am 7.1 2.5 3.6 78 1.5 NW 17 20 9 11 1013.2 1013.2 1.8
14/12:30am 7.5 2.5 3.8 77 1.6 NW 19 24 10 13 1013.6 1013.6 1.8
14/12:00am 7.0 1.9 4.2 82 1.2 NW 20 28 11 15 1013.9 1013.9 1.8
 
Date/Time
EST
Temp
°C
App
Temp
°C
Dew
Point
°C
Rel
Hum
%
Delta-T
°C
Wind Press
QNH
hPa
Press
MSL
hPa
Rain since
9am
mm
Dir  Spd
km/h
Gust
km/h
Spd
kts
Gust
kts
13/11:30pm 6.6 2.2 4.5 86 0.9 NW 17 22 9 12 1014.0 1014.0 1.8
13/11:00pm 7.1 2.6 4.3 82 1.2 NW 17 20 9 11 1014.2 1014.2 1.8
13/10:30pm 6.7 3.0 4.6 86 0.9 NW 13 15 7 8 1014.2 1014.2 1.8
13/10:00pm 7.1 2.8 5.3 88 0.8 WNW 17 26 9 14 1014.3 1014.3 1.8
13/09:30pm 6.7 2.7 5.1 89 0.7 WNW 15 22 8 12 1014.2 1014.2 1.8
13/09:00pm 7.6 3.3 5.4 86 1.0 WNW 17 20 9 11 1014.1 1014.1 1.8
13/08:30pm 7.7 3.9 5.7 87 0.9 WNW 15 20 8 11 1014.0 1014.0 1.8
13/08:00pm 8.3 4.7 6.8 90 0.7 WNW 15 26 8 14 1013.9 1013.9 1.8
13/07:30pm 9.4 5.1 6.9 84 1.2 W 19 28 10 15 1014.0 1014.0 1.8
13/07:00pm 9.9 4.5 6.5 79 1.6 W 24 33 13 18 1013.6 1013.6 1.8
13/06:30pm 10.1 4.8 6.9 80 1.5 W 24 35 13 19 1013.3 1013.3 1.8
13/06:00pm 9.7 5.7 8.1 90 0.8 W 19 24 10 13 1012.9 1012.9 1.8
13/05:30pm 10.1 5.9 8.3 88 0.9 W 20 30 11 16 1012.7 1012.7 1.8
13/05:00pm 10.6 5.8 9.0 90 0.8 WSW 24 33 13 18 1012.6 1012.6 1.8
13/04:38pm 10.7 6.8 9.3 91 0.7 WSW 20 30 11 16 1012.5 1012.5 1.8
13/04:30pm 10.8 5.7 9.2 90 0.8 WSW 26 37 14 20 1012.4 1012.4 1.4
13/04:18pm 10.9 6.3 9.5 91 0.7 WSW 24 44 13 24 1012.3 1012.3 1.4
13/04:10pm 11.5 7.8 10.1 91 0.7 WSW 20 32 11 17 1012.1 1012.1 1.2
13/04:00pm 11.9 8.3 10.6 92 0.7 W 20 26 11 14 1012.0 1012.0 1.2
13/03:30pm 12.5 8.9 10.0 85 1.3 W 19 26 10 14 1011.7 1011.7 1.2
13/03:00pm 12.5 9.8 10.2 86 1.2 W 15 19 8 10 1011.4 1011.4 1.2
13/02:45pm 12.6 9.8 10.1 85 1.3 W 15 22 8 12 1011.3 1011.3 1.2
13/02:36pm 12.6 9.1 10.1 85 1.3 W 19 26 10 14 1011.3 1011.3 1.0
13/02:30pm 12.7 10.3 10.0 84 1.4 WNW 13 26 7 14 1011.2 1011.2 1.0
13/02:21pm 12.7 11.2 10.4 86 1.2 NNW 9 11 5 6 1011.1 1011.1 0.4
13/02:17pm 12.8 10.8 10.1 84 1.4 NNW 11 19 6 10 1010.9 1010.9 0.2
13/02:11pm 12.8 10.0 10.1 84 1.4 NW 15 26 8 14 1010.9 1010.9 0.2
13/02:01pm 13.1 8.2 10.0 81 1.6 NW 26 35 14 19 1011.0 1011.0 0.0
13/02:00pm 13.2 8.3 10.1 81 1.6 NW 26 35 14 19 1011.0 1011.0 0.0
13/01:56pm 13.7 9.4 9.4 75 2.2 WNW 22 35 12 19 1011.0 1011.0 0.0
13/01:30pm 16.0 10.5 5.9 51 4.9 NW 24 30 13 16 1010.6 1010.6 0.0
13/01:00pm 17.3 11.4 5.9 47 5.6 NNW 26 39 14 21 1010.8 1010.8 0.0
13/12:30pm 15.1 9.1 5.2 51 4.7 NNW 26 39 14 21 1011.2 1011.2 0.0
13/12:00pm 15.6 11.1 6.9 56 4.3 NW 20 30 11 16 1012.1 1012.1 0.0
13/11:30am 14.7 10.2 6.2 56 4.1 NW 19 32 10 17 1012.6 1012.6 0.0
13/11:00am 15.0 11.1 5.3 52 4.6 NNW 15 20 8 11 1012.7 1012.7 0.0
13/10:30am 14.8 11.7 5.6 54 4.4 NNW 11 28 6 15 1012.5 1012.5 0.0
13/10:00am 13.0 8.5 6.3 64 3.2 NNE 19 26 10 14 1012.2 1012.2 0.0
13/09:30am 12.4 5.9 6.3 66 2.9 N 30 39 16 21 1012.4 1012.4 0.0
13/09:00am 12.8 7.3 5.8 62 3.3 N 24 37 13 20 1012.8 1012.8 0.0
13/08:30am 12.8 5.8 6.1 64 3.2 NNE 32 39 17 21 1012.9 1012.9 0.0
13/08:00am 12.0 6.8 5.3 63 3.1 N 22 28 12 15 1012.7 1012.7 0.0
13/07:30am 10.0 4.5 5.7 74 2.0 N 24 30 13 16 1013.4 1013.4 0.0
13/07:00am 10.5 5.3 5.3 70 2.4 N 22 28 12 15 1013.6 1013.6 0.0
13/06:30am 10.7 5.1 5.3 69 2.5 N 24 30 13 16 1013.5 1013.5 0.0
13/06:00am 9.7 5.1 5.6 75 1.9 NNW 19 26 10 14 1014.0 1014.0 0.0
13/05:30am 10.1 4.5 5.5 73 2.1 N 24 30 13 16 1014.2 1014.2 0.0
13/05:00am 7.5 3.2 5.3 86 1.0 NNW 17 24 9 13 1014.2 1014.2 0.0
13/04:30am 9.2 4.0 5.7 79 1.6 N 22 26 12 14 1014.1 1014.1 0.0
13/04:00am 9.7 4.6 5.8 77 1.8 N 22 26 12 14 1014.7 1014.7 0.0
13/03:30am 9.5 4.4 5.8 78 1.7 N 22 26 12 14 1014.8 1014.8 0.0
13/03:00am 9.2 5.0 5.7 79 1.6 N 17 20 9 11 1015.4 1015.4 0.0
13/02:30am 9.8 5.3 5.9 77 1.8 N 19 20 10 11 1015.8 1015.8 0.0
13/02:00am 9.7 4.6 6.0 78 1.7 N 22 26 12 14 1016.0 1016.0 0.0
13/01:30am 9.3 5.2 6.1 80 1.5 N 17 24 9 13 1016.5 1016.6 0.0
13/01:00am 8.7 4.0 5.9 82 1.3 N 20 24 11 13 1016.7 1016.8 0.0
13/12:30am 9.3 4.7 6.3 81 1.4 N 20 24 11 13 1016.9 1017.0 0.0
13/12:00am 8.7 4.7 6.5 86 1.0 N 17 20 9 11 1017.1 1017.2 0.0
 
Date/Time
EST
Temp
°C
App
Temp
°C
Dew
Point
°C
Rel
Hum
%
Delta-T
°C
Wind Press
QNH
hPa
Press
MSL
hPa
Rain since
9am
mm
Dir  Spd
km/h
Gust
km/h
Spd
kts
Gust
kts
12/11:30pm 8.1 3.7 6.6 90 0.7 N 19 22 10 12 1017.4 1017.5 0.0
12/11:00pm 9.1 5.2 7.2 88 0.9 N 17 24 9 13 1017.6 1017.7 0.0
12/10:30pm 8.8 4.4 7.3 90 0.7 N 20 22 11 12 1018.1 1018.1 0.0
12/10:00pm 9.2 5.7 7.3 88 0.9 N 15 17 8 9 1018.5 1018.5 0.0
12/09:30pm 9.9 6.1 7.6 85 1.1 N 17 20 9 11 1018.6 1018.6 0.0
12/09:00pm 8.6 6.6 7.1 90 0.7 N 7 9 4 5 1018.9 1018.9 0.0
12/08:30pm 9.3 6.7 7.6 89 0.8 NNE 11 13 6 7 1019.3 1019.3 0.0
12/08:00pm 9.2 8.5 7.1 87 1.0 CALM 0 0 0 0 1019.4 1019.4 0.0
12/07:30pm 12.4 11.9 7.9 74 2.2 CALM 0 0 0 0 1019.4 1019.4 0.0
12/07:00pm 10.6 8.8 8.1 84 1.2 ENE 7 9 4 5 1019.3 1019.3 0.0
12/06:30pm 13.0 12.5 7.7 70 2.6 CALM 0 0 0 0 1019.2 1019.2 0.0
12/06:00pm 13.2 12.6 7.5 68 2.8 CALM 0 0 0 0 1019.1 1019.1 0.0
12/05:30pm 14.0 13.5 7.7 66 3.1 CALM 0 0 0 0 1019.1 1019.1 0.0
12/05:00pm 16.4 16.1 8.8 60 3.9 CALM 0 0 0 0 1019.1 1019.1 0.0
12/04:30pm 16.5 15.6 7.8 56 4.4 ESE 2 7 1 4 1019.3 1019.3 0.0
12/04:00pm 16.8 16.3 7.7 55 4.6 CALM 0 6 0 3 1019.5 1019.5 0.0
12/03:30pm 16.7 14.9 7.8 55 4.5 ENE 7 11 4 6 1019.8 1019.8 0.0
12/03:00pm 16.4 14.5 7.4 55 4.5 ENE 7 11 4 6 1019.7 1019.7 0.0
12/02:30pm 15.9 14.6 7.7 58 4.1 NE 4 9 2 5 1019.9 1019.9 0.0
12/02:00pm 15.7 14.8 7.7 59 4.0 NNE 2 13 1 7 1020.4 1020.4 0.0
12/01:30pm 15.4 13.6 7.3 58 4.0 SSE 6 9 3 5 1020.9 1020.9 0.0
12/01:00pm 15.2 13.6 7.8 61 3.7 ESE 6 11 3 6 1021.4 1021.4 0.0
12/12:30pm 14.6 12.8 8.0 64 3.3 SW 7 11 4 6 1022.1 1022.1 0.0
12/12:00pm 13.4 12.9 7.9 69 2.7 CALM 0 6 0 3 1022.9 1022.9 0.0
12/11:30am 13.7 12.5 8.1 69 2.8 WSW 4 9 2 5 1023.5 1023.6 0.0
12/11:00am 12.3 10.1 7.8 74 2.2 WSW 9 11 5 6 1024.0 1024.1 0.0
12/10:30am 12.0 9.8 7.7 75 2.1 WNW 9 13 5 7 1024.3 1024.4 0.0
12/10:00am 11.0 8.5 8.1 82 1.4 NW 11 15 6 8 1024.5 1024.6 0.0
12/09:30am 10.2 7.6 7.7 84 1.2 WNW 11 15 6 8 1024.7 1024.8 0.0
12/09:00am 9.1 7.4 7.4 89 0.8 WSW 6 7 3 4 1024.9 1025.0 0.6
12/08:30am 8.9 7.0 7.6 91 0.6 W 7 9 4 5 1025.0 1025.1 0.6
12/08:00am 7.1 4.2 6.4 95 0.3 W 11 13 6 7 1025.0 1025.1 0.6
12/07:30am 6.0 3.3 5.8 99 0.1 W 9 11 5 6 1024.7 1024.8 0.6
12/07:00am 5.8 3.1 5.6 99 0.1 W 9 11 5 6 1024.8 1024.9 0.6
12/06:30am 5.5 2.3 5.3 99 0.1 WSW 11 11 6 6 1024.6 1024.7 0.6
12/06:00am 6.1 3.7 5.4 95 0.3 WNW 7 7 4 4 1024.5 1024.6 0.6
12/05:30am 6.4 4.2 6.0 97 0.2 WSW 7 9 4 5 1024.5 1024.6 0.6
12/05:00am 5.9 4.1 5.2 95 0.3 SSW 4 9 2 5 1024.6 1024.7 0.6
12/04:30am 7.0 4.0 6.1 94 0.4 S 11 13 6 7 1024.4 1024.5 0.6
12/04:00am 7.4 4.1 6.3 93 0.5 S 13 15 7 8 1024.6 1024.7 0.6
12/03:30am 7.5 4.5 6.2 91 0.6 S 11 15 6 8 1024.9 1025.0 0.6
12/03:00am 7.8 4.9 6.3 90 0.7 S 11 13 6 7 1025.1 1025.2 0.6
12/02:30am 7.9 4.5 6.1 88 0.8 SSE 13 19 7 10 1025.2 1025.3 0.6
12/02:00am 8.2 3.7 6.0 86 1.0 SSE 19 26 10 14 1025.5 1025.6 0.6
12/01:30am 9.6 4.9 5.9 78 1.7 S 20 28 11 15 1025.9 1026.0 0.6
12/01:00am 9.3 3.4 5.8 79 1.6 SSE 26 33 14 18 1025.9 1026.0 0.6
12/12:30am 9.6 4.4 5.4 75 1.9 S 22 28 12 15 1025.8 1025.9 0.6
12/12:00am 8.9 3.2 5.1 77 1.7 SSE 24 32 13 17 1026.0 1026.1 0.6
 
Date/Time
EST
Temp
°C
App
Temp
°C
Dew
Point
°C
Rel
Hum
%
Delta-T
°C
Wind Press
QNH
hPa
Press
MSL
hPa
Rain since
9am
mm
Dir  Spd
km/h
Gust
km/h
Spd
kts
Gust
kts
11/11:30pm 9.3 4.6 5.1 75 1.9 S 19 22 10 12 1026.2 1026.3 0.6
11/11:00pm 9.6 4.3 5.2 74 2.0 SSE 22 30 12 16 1026.1 1026.2 0.6
11/10:30pm 10.0 5.3 5.9 75 1.9 SSE 20 30 11 16 1026.1 1026.2 0.6
11/10:00pm 9.9 6.2 6.2 78 1.7 SSE 15 20 8 11 1026.0 1026.1 0.6
11/09:30pm 10.2 6.1 6.3 77 1.8 SSE 17 20 9 11 1026.0 1026.1 0.6
11/09:00pm 10.2 6.2 6.8 79 1.6 SSE 17 26 9 14 1025.7 1025.8 0.6
11/08:30pm 11.0 5.7 7.0 76 1.9 SE 24 32 13 17 1025.3 1025.4 0.6
11/08:00pm 11.5 5.9 7.1 74 2.1 SE 26 35 14 19 1024.9 1025.0 0.6
11/07:30pm 11.9 7.1 7.3 73 2.2 SE 22 32 12 17 1024.6 1024.7 0.6
11/07:00pm 12.2 7.1 7.5 73 2.3 SE 24 37 13 20 1024.2 1024.3 0.6
11/06:30pm 12.4 6.9 7.7 73 2.3 SE 26 37 14 20 1023.8 1023.9 0.6
11/06:00pm 12.6 8.3 7.7 72 2.4 SE 20 32 11 17 1023.4 1023.5 0.6
11/05:30pm 12.9 7.0 7.6 70 2.6 SE 28 41 15 22 1022.9 1022.9 0.6
11/05:01pm 13.4 6.6 7.9 69 2.7 SE 33 52 18 28 1022.4 1022.4 0.6
11/05:00pm 13.5 7.0 8.1 70 2.7 SE 32 43 17 23 1022.4 1022.4 0.6
11/04:30pm 13.6 8.4 8.9 73 2.4 SSE 26 33 14 18 1022.1 1022.1 0.6
11/04:00pm 14.0 9.3 9.3 73 2.4 SE 24 33 13 18 1021.8 1021.8 0.6
11/03:30pm 13.9 10.0 9.6 75 2.2 SE 20 30 11 16 1021.6 1021.6 0.6
11/03:00pm 14.1 9.2 10.1 77 2.1 SSE 26 32 14 17 1021.3 1021.3 0.6
11/02:30pm 14.3 10.3 10.3 77 2.1 SE 22 30 12 16 1021.1 1021.1 0.6
11/02:00pm 13.2 11.9 11.3 88 1.0 WSW 9 11 5 6 1020.9 1020.9 0.6
11/01:30pm 13.1 10.6 11.2 88 1.0 W 15 17 8 9 1020.7 1020.7 0.6
11/01:00pm 12.3 9.8 11.0 92 0.7 W 15 19 8 10 1020.7 1020.7 0.6
11/12:30pm 11.9 8.9 10.7 92 0.6 W 17 20 9 11 1020.6 1020.6 0.6
11/12:00pm 11.5 8.8 10.3 92 0.6 W 15 22 8 12 1020.5 1020.5 0.6
11/11:30am 10.6 5.7 10.0 96 0.3 W 26 33 14 18 1020.4 1020.4 0.6
11/11:00am 10.2 5.9 9.4 95 0.4 W 22 30 12 16 1020.4 1020.4 0.2

Latest Capital City Observations: Canberra | Sydney | Melbourne | Brisbane | Adelaide | Perth | Hobart | Darwin

Other formats

Comma delimited format used in spreadsheet applications
http://www.bom.gov.au/fwo/IDV60901/IDV60901.94866.axf

JavaScript Object Notation format (JSON) in row-major order
http://www.bom.gov.au/fwo/IDV60901/IDV60901.94866.json

Data quality

Most of these data are generated automatically and are frequently updated. Quality checks on data are not normally performed. It is possible for incorrect values to appear. Refer to information at About Latest Weather Observations and please check the disclaimer before using these data.